Terminal Aerodrome Forecast
Issued by NWS Grand Forks, ND

Home | Current Version | Previous Version | Graphics & Text | Print | Product List | Glossary Off
Versions: 1 2 3 4 5 6 7 8 9 10 11 12 13 14 15 16 17

000
FTUS43 KFGF 232333
TAFFAR
TAF
KFAR 232333Z 2400/2424 03013KT P6SM BKN050
      TEMPO 2401/2403 SCT060
     FM240300 02007KT P6SM SCT090
     FM241600 12007KT P6SM FEW200=

USA.gov is the U.S. government's official web portal to all federal, state and local government web resources and services.